Purdin, Missouri
Current Conditions -  °F | °C
As of 5:55 PM on Sunday 21 Dec 2014 (Local Time) from KIRK Reporting Station
Overcast Overcast  
Wind Chill: 36°   Ceiling: 4000
Heat Index: 42°   Visibility: 8mi
Dew Point: 39°   Wind: 12mph
Humidity: 89%   Direction: 150°SSE
Pressure: 29.89"   Gusts: NA
Location:  39.95°N, 93.17°W
Report Text: KIRK 212355Z AUTO 15010KT 8SM FEW021 FEW025 OVC040 06/04 A2989 RMK AO2 RAE01 SLP131 P0000 60000 T00560039 10072 20056 56004
Loading
Personal Weather Stations






























Interactive Weather Map New forecast layout! Learn more

10-Day Weather Forecast

Advertisements
Track Severe Weather on mobile